createdAt,value
2019-05-11T00:00:03.375Z,469.91
2019-05-11T00:01:03.355Z,468.60
2019-05-11T00:02:03.357Z,462.91
2019-05-11T00:03:03.342Z,464.89
2019-05-11T00:04:03.368Z,459.94
2019-05-11T00:05:03.371Z,462.03
2019-05-11T00:06:03.318Z,468.91
2019-05-11T00:07:03.300Z,473.60
2019-05-11T00:08:03.337Z,473.81
2019-05-11T00:09:03.321Z,477.34
2019-05-11T00:10:03.277Z,458.47
2019-05-11T00:11:03.267Z,461.67
2019-05-11T00:12:03.260Z,470.62
2019-05-11T00:13:03.247Z,462.48
2019-05-11T00:14:03.224Z,466.08
2019-05-11T00:15:03.223Z,470.26
2019-05-11T00:16:03.228Z,466.43
2019-05-11T00:17:03.193Z,465.44
2019-05-11T00:18:03.181Z,467.61
2019-05-11T00:19:03.203Z,465.16
2019-05-11T00:20:03.233Z,467.14
2019-05-11T00:21:03.142Z,470.44
2019-05-11T00:22:03.141Z,476.23
2019-05-11T00:23:03.129Z,468.24
2019-05-11T00:24:03.130Z,472.44
2019-05-11T00:25:03.123Z,495.79
2019-05-11T00:26:03.100Z,469.80
2019-05-11T00:27:03.106Z,476.27
2019-05-11T00:28:03.080Z,467.54
2019-05-11T00:29:03.064Z,466.31
2019-05-11T00:30:03.058Z,476.93
2019-05-11T00:31:03.049Z,470.31
2019-05-11T00:32:03.068Z,464.37
2019-05-11T00:33:03.036Z,480.39
2019-05-11T00:34:03.030Z,462.61
2019-05-11T00:35:03.018Z,467.65
2019-05-11T00:36:03.009Z,473.29
2019-05-11T00:37:02.988Z,467.14
2019-05-11T00:38:02.999Z,464.20
2019-05-11T00:39:02.957Z,460.50
2019-05-11T00:40:13.973Z,474.84
2019-05-11T00:41:03.946Z,464.19
2019-05-11T00:42:02.989Z,465.73
2019-05-11T00:43:02.930Z,468.39
2019-05-11T00:44:02.922Z,466.71
2019-05-11T00:45:02.907Z,462.58
2019-05-11T00:46:02.896Z,472.19
2019-05-11T00:47:02.894Z,470.06
2019-05-11T00:48:02.881Z,477.07
2019-05-11T00:49:02.875Z,462.46
2019-05-11T00:50:02.852Z,464.00
2019-05-11T00:51:02.837Z,462.52
2019-05-11T00:52:02.868Z,461.16
2019-05-11T00:53:02.825Z,467.67
2019-05-11T00:54:02.807Z,465.85
2019-05-11T00:55:02.788Z,477.35
2019-05-11T00:56:02.784Z,457.79
2019-05-11T00:57:02.784Z,466.28
2019-05-11T00:58:02.777Z,467.30
2019-05-11T00:59:02.781Z,457.23
2019-05-11T01:00:02.748Z,476.53
2019-05-11T01:01:02.724Z,458.96
2019-05-11T01:02:02.757Z,474.64
2019-05-11T01:03:02.713Z,468.52
2019-05-11T01:04:02.700Z,459.71
2019-05-11T01:05:02.694Z,462.83
2019-05-11T01:06:02.684Z,458.80
2019-05-11T01:07:02.727Z,461.98
2019-05-11T01:08:02.672Z,458.72
2019-05-11T01:09:02.662Z,468.49
2019-05-11T01:10:02.635Z,463.96
2019-05-11T01:11:02.629Z,470.31
2019-05-11T01:12:02.622Z,465.29
2019-05-11T01:13:02.610Z,473.10
2019-05-11T01:14:02.596Z,460.66
2019-05-11T01:15:02.601Z,478.06
2019-05-11T01:16:02.576Z,469.44
2019-05-11T01:17:02.564Z,464.66
2019-05-11T01:18:02.562Z,462.33
2019-05-11T01:19:02.565Z,463.02
2019-05-11T01:20:02.532Z,460.24
2019-05-11T01:21:02.532Z,467.44
2019-05-11T01:22:02.518Z,476.75
2019-05-11T01:23:02.526Z,478.58
2019-05-11T01:24:02.482Z,470.95
2019-05-11T01:25:02.487Z,468.09
2019-05-11T01:26:02.486Z,470.92
2019-05-11T01:27:02.463Z,478.69
2019-05-11T01:28:02.449Z,467.00
2019-05-11T01:29:02.437Z,460.73
2019-05-11T01:30:02.452Z,460.91
2019-05-11T01:31:02.462Z,475.48
2019-05-11T01:32:02.409Z,471.89
2019-05-11T01:33:02.388Z,464.33
2019-05-11T01:34:02.371Z,458.87
2019-05-11T01:35:02.374Z,458.54
2019-05-11T01:36:02.351Z,459.72
2019-05-11T01:37:02.379Z,460.97
2019-05-11T01:38:02.332Z,468.05
2019-05-11T01:39:02.327Z,485.83
2019-05-11T01:40:02.331Z,469.00
2019-05-11T01:41:02.311Z,473.35
2019-05-11T01:42:02.311Z,471.26
2019-05-11T01:43:11.474Z,457.51
2019-05-11T01:44:02.332Z,461.64
2019-05-11T01:45:02.293Z,473.17
2019-05-11T01:46:04.417Z,461.84
2019-05-11T01:47:02.912Z,464.90
2019-05-11T01:48:02.281Z,458.08
2019-05-11T01:49:02.234Z,462.37
2019-05-11T01:50:02.220Z,467.20
2019-05-11T01:51:02.223Z,482.42
2019-05-11T01:52:02.269Z,478.51
2019-05-11T01:53:02.199Z,460.64
2019-05-11T01:54:02.223Z,459.36
2019-05-11T01:55:02.197Z,454.97
2019-05-11T01:56:02.199Z,486.85
2019-05-11T01:57:02.249Z,463.49
2019-05-11T01:58:02.194Z,461.67
2019-05-11T01:59:02.160Z,465.67
2019-05-11T02:00:02.160Z,473.08
2019-05-11T02:01:02.125Z,458.55
2019-05-11T02:02:02.116Z,473.17
2019-05-11T02:03:02.132Z,469.90
2019-05-11T02:04:02.168Z,474.86
2019-05-11T02:05:02.081Z,468.34
2019-05-11T02:06:02.095Z,463.24
2019-05-11T02:07:11.748Z,461.96
2019-05-11T02:08:02.141Z,470.10
2019-05-11T02:09:02.028Z,460.47
2019-05-11T02:10:02.141Z,462.32
2019-05-11T02:11:14.984Z,463.82
2019-05-11T02:12:03.032Z,467.29
2019-05-11T02:13:12.024Z,462.38
2019-05-11T02:14:01.963Z,461.54
2019-05-11T02:15:01.948Z,464.59
2019-05-11T02:16:01.969Z,467.39
2019-05-11T02:17:01.986Z,461.79
2019-05-11T02:18:02.012Z,482.90
2019-05-11T02:19:01.908Z,459.73
2019-05-11T02:20:01.944Z,470.59
2019-05-11T02:21:01.879Z,465.70
2019-05-11T02:22:01.872Z,468.64
2019-05-11T02:23:02.677Z,461.57
2019-05-11T02:24:01.892Z,464.91
2019-05-11T02:25:01.875Z,464.79
2019-05-11T02:26:01.855Z,457.06
2019-05-11T02:27:01.851Z,477.24
2019-05-11T02:28:01.840Z,457.99
2019-05-11T02:29:01.800Z,457.57
2019-05-11T02:30:01.867Z,456.97
2019-05-11T02:31:01.819Z,458.21
2019-05-11T02:32:01.812Z,465.89
2019-05-11T02:33:01.796Z,461.28
2019-05-11T02:34:01.756Z,455.61
2019-05-11T02:35:01.803Z,480.97
2019-05-11T02:36:02.533Z,452.32
2019-05-11T02:37:01.804Z,468.47
2019-05-11T02:38:02.462Z,469.40
2019-05-11T02:39:01.702Z,466.34
2019-05-11T02:40:01.700Z,478.60
2019-05-11T02:41:01.737Z,464.09
2019-05-11T02:42:01.680Z,457.27
2019-05-11T02:43:01.711Z,471.80
2019-05-11T02:44:11.153Z,458.73
2019-05-11T02:45:01.706Z,471.56
2019-05-11T02:47:18.289Z,494.74
2019-05-11T02:48:19.049Z,458.69
2019-05-11T02:49:18.266Z,466.43
2019-05-11T02:50:18.226Z,461.74
2019-05-11T02:51:18.242Z,470.59
2019-05-11T02:52:18.227Z,462.82
2019-05-11T02:53:18.631Z,457.15
2019-05-11T02:54:18.184Z,460.73
2019-05-11T02:55:19.331Z,459.91
2019-05-11T02:56:18.234Z,458.33
2019-05-11T02:57:18.357Z,459.82
2019-05-11T02:58:25.095Z,459.15
2019-05-11T02:59:18.224Z,477.96
2019-05-11T03:00:18.153Z,475.51
2019-05-11T03:01:18.126Z,466.53
2019-05-11T03:02:18.112Z,456.11
2019-05-11T03:03:18.110Z,457.60
2019-05-11T03:04:19.046Z,456.05
2019-05-11T03:05:18.085Z,456.05
2019-05-11T03:06:18.058Z,460.66
2019-05-11T03:07:18.100Z,461.30
2019-05-11T03:08:18.060Z,459.87
2019-05-11T03:09:18.262Z,459.42
2019-05-11T03:10:18.073Z,465.71
2019-05-11T03:11:18.001Z,459.21
2019-05-11T03:12:18.095Z,449.07
2019-05-11T03:13:17.997Z,483.45
2019-05-11T03:14:18.004Z,453.78
2019-05-11T03:15:17.964Z,453.35
2019-05-11T03:16:17.983Z,457.28
2019-05-11T03:17:18.012Z,458.33
2019-05-11T03:18:18.002Z,458.83
2019-05-11T03:19:17.922Z,454.48
2019-05-11T03:20:17.957Z,453.61
2019-05-11T03:21:17.918Z,455.41
2019-05-11T03:22:17.931Z,463.33
2019-05-11T03:23:17.873Z,454.52
2019-05-11T03:24:17.934Z,459.60
2019-05-11T03:25:17.898Z,459.54
2019-05-11T03:26:17.862Z,468.72
2019-05-11T03:27:17.859Z,461.00
2019-05-11T03:28:18.072Z,455.60
2019-05-11T03:29:17.854Z,468.44
2019-05-11T03:30:17.918Z,466.17
2019-05-11T03:31:17.851Z,472.19
2019-05-11T03:32:17.853Z,459.01
2019-05-11T03:33:17.791Z,468.58
2019-05-11T03:34:17.803Z,453.68
2019-05-11T03:35:17.808Z,462.51
2019-05-11T03:36:17.733Z,460.79
2019-05-11T03:37:17.761Z,462.39
2019-05-11T03:38:17.768Z,456.60
2019-05-11T03:39:17.730Z,456.12
2019-05-11T03:40:17.847Z,472.76
2019-05-11T03:41:17.746Z,460.87
2019-05-11T03:42:17.737Z,463.92
2019-05-11T03:43:17.719Z,458.79
2019-05-11T03:44:17.684Z,458.51
2019-05-11T03:45:17.806Z,458.76
2019-05-11T03:46:17.894Z,458.19
2019-05-11T03:47:18.553Z,463.97
2019-05-11T03:48:17.732Z,456.12
2019-05-11T03:49:17.741Z,458.55
2019-05-11T03:50:17.642Z,466.31
2019-05-11T03:51:17.626Z,463.90
2019-05-11T03:52:17.651Z,464.04
2019-05-11T03:53:17.613Z,472.38
2019-05-11T03:54:17.567Z,462.42
2019-05-11T03:55:17.570Z,472.13
2019-05-11T03:56:17.550Z,466.37
2019-05-11T03:57:18.052Z,464.49
2019-05-11T03:58:17.591Z,461.61
2019-05-11T03:59:17.533Z,477.20
2019-05-11T04:00:17.569Z,466.10
2019-05-11T04:01:17.523Z,470.71
2019-05-11T04:02:17.560Z,465.75
2019-05-11T04:03:17.518Z,465.08
2019-05-11T04:04:17.598Z,465.79
2019-05-11T04:05:17.470Z,468.85
2019-05-11T04:06:17.434Z,473.96
2019-05-11T04:07:17.435Z,469.07
2019-05-11T04:08:17.478Z,472.32
2019-05-11T04:09:17.421Z,472.24
2019-05-11T04:10:17.411Z,470.85
2019-05-11T04:11:17.466Z,473.26
2019-05-11T04:12:33.421Z,471.73
2019-05-11T04:13:18.438Z,469.94
2019-05-11T04:14:17.375Z,462.81
2019-05-11T04:15:17.368Z,459.11
2019-05-11T04:16:17.404Z,463.81
2019-05-11T04:17:17.353Z,465.79
2019-05-11T04:18:17.357Z,462.34
2019-05-11T04:19:17.366Z,468.17
2019-05-11T04:20:17.366Z,466.76
2019-05-11T04:21:17.338Z,477.60
2019-05-11T04:22:17.266Z,466.89
2019-05-11T04:23:17.256Z,472.53
2019-05-11T04:24:17.261Z,458.90
2019-05-11T04:25:17.404Z,462.99
2019-05-11T04:26:17.297Z,475.07
2019-05-11T04:27:19.664Z,463.81
2019-05-11T04:28:17.278Z,466.21
2019-05-11T04:29:17.229Z,468.38
2019-05-11T04:30:17.200Z,469.73
2019-05-11T04:31:17.235Z,466.62
2019-05-11T04:32:17.396Z,463.09
2019-05-11T04:33:17.193Z,475.72
2019-05-11T04:34:17.157Z,471.68
2019-05-11T04:35:17.282Z,469.01
2019-05-11T04:36:17.166Z,470.69
2019-05-11T04:37:17.125Z,469.00
2019-05-11T04:38:17.122Z,465.94
2019-05-11T04:39:17.195Z,471.30
2019-05-11T04:40:17.070Z,466.78
2019-05-11T04:41:17.154Z,468.19
2019-05-11T04:42:17.093Z,464.04
2019-05-11T04:43:17.258Z,471.93
2019-05-11T04:44:17.098Z,466.36
2019-05-11T04:45:17.116Z,467.01
2019-05-11T04:46:17.065Z,473.91
2019-05-11T04:47:17.565Z,465.01
2019-05-11T04:48:17.011Z,462.87
2019-05-11T04:49:17.064Z,473.34
2019-05-11T04:50:17.109Z,469.11
2019-05-11T04:51:17.100Z,462.98
2019-05-11T04:52:16.980Z,466.96
2019-05-11T04:53:17.046Z,475.08
2019-05-11T04:54:16.989Z,460.45
2019-05-11T04:55:16.925Z,467.09
2019-05-11T04:56:16.956Z,475.04
2019-05-11T04:57:16.936Z,473.56
2019-05-11T04:58:16.885Z,471.98
2019-05-11T04:59:16.989Z,472.26
2019-05-11T05:00:17.072Z,476.60
2019-05-11T05:01:16.881Z,458.81
2019-05-11T05:02:16.921Z,464.16
2019-05-11T05:03:19.065Z,462.40
2019-05-11T05:04:16.950Z,468.83
2019-05-11T05:05:16.794Z,465.01
2019-05-11T05:06:24.553Z,468.53
2019-05-11T05:07:17.943Z,480.26
2019-05-11T05:08:21.100Z,470.80
2019-05-11T05:09:17.792Z,462.05
2019-05-11T05:10:20.046Z,471.06
2019-05-11T05:11:17.762Z,467.19
2019-05-11T05:12:16.741Z,465.39
2019-05-11T05:13:17.566Z,469.95
2019-05-11T05:14:16.717Z,489.93
2019-05-11T05:15:16.705Z,500.95
2019-05-11T05:16:17.575Z,470.12
2019-05-11T05:17:16.768Z,464.72
2019-05-11T05:18:16.668Z,465.77
2019-05-11T05:19:16.696Z,472.55
2019-05-11T05:20:16.649Z,464.09
2019-05-11T05:21:16.625Z,468.09
2019-05-11T05:22:16.614Z,468.31
2019-05-11T05:23:16.622Z,472.33
2019-05-11T05:24:16.616Z,468.35
2019-05-11T05:25:16.620Z,466.01
2019-05-11T05:26:16.584Z,464.43
2019-05-11T05:27:16.588Z,467.44
2019-05-11T05:28:16.544Z,463.93
2019-05-11T05:29:16.562Z,475.04
2019-05-11T05:30:16.576Z,484.82
2019-05-11T05:31:16.507Z,466.16
2019-05-11T05:32:16.521Z,464.15
2019-05-11T05:33:16.535Z,464.29
2019-05-11T05:34:16.489Z,467.97
2019-05-11T05:35:16.475Z,467.40
2019-05-11T05:36:16.490Z,465.49
2019-05-11T05:37:16.453Z,470.79
2019-05-11T05:38:16.448Z,470.91
2019-05-11T05:39:16.462Z,471.71
2019-05-11T05:40:16.433Z,462.42
2019-05-11T05:41:16.422Z,485.60
2019-05-11T05:42:16.433Z,465.58
2019-05-11T05:43:26.227Z,463.69
2019-05-11T05:44:17.383Z,475.59
2019-05-11T05:45:16.366Z,471.92
2019-05-11T05:46:16.373Z,480.74
2019-05-11T05:47:16.344Z,477.72
2019-05-11T05:48:16.384Z,472.73
2019-05-11T05:49:16.372Z,466.61
2019-05-11T05:50:16.358Z,475.14
2019-05-11T05:51:16.289Z,465.16
2019-05-11T05:52:16.331Z,468.98
2019-05-11T05:53:17.221Z,469.78
2019-05-11T05:54:19.846Z,476.08
2019-05-11T05:55:16.287Z,482.73
2019-05-11T05:56:16.292Z,473.29
2019-05-11T05:57:16.255Z,472.47
2019-05-11T05:58:16.244Z,469.73
2019-05-11T05:59:16.235Z,467.00
2019-05-11T06:00:16.240Z,482.09
2019-05-11T06:01:16.204Z,469.94
2019-05-11T06:02:16.300Z,478.54
2019-05-11T06:03:16.221Z,468.20
2019-05-11T06:04:16.286Z,477.41
2019-05-11T06:05:16.190Z,475.09
2019-05-11T06:06:16.190Z,471.97
2019-05-11T06:07:16.146Z,465.76
2019-05-11T06:08:17.082Z,476.60
2019-05-11T06:09:16.182Z,468.97
2019-05-11T06:10:17.527Z,479.32
2019-05-11T06:11:16.109Z,468.43
2019-05-11T06:12:18.633Z,480.41
2019-05-11T06:13:16.235Z,478.74
2019-05-11T06:14:16.117Z,470.09
2019-05-11T06:15:16.037Z,476.07
2019-05-11T06:16:17.080Z,469.43
2019-05-11T06:17:16.070Z,472.32
2019-05-11T06:18:16.340Z,478.17
2019-05-11T06:19:16.046Z,472.74
2019-05-11T06:20:15.986Z,471.10
2019-05-11T06:21:17.011Z,471.22
2019-05-11T06:22:16.044Z,474.98
2019-05-11T06:23:16.055Z,470.95
2019-05-11T06:24:15.986Z,472.03
2019-05-11T06:25:16.597Z,471.88
2019-05-11T06:26:15.979Z,475.61
2019-05-11T06:27:15.928Z,478.63
2019-05-11T06:28:15.926Z,467.09
2019-05-11T06:29:15.918Z,470.40
2019-05-11T06:30:15.944Z,480.79
2019-05-11T06:31:15.930Z,474.99
2019-05-11T06:32:16.233Z,483.18
2019-05-11T06:33:15.866Z,475.59
2019-05-11T06:34:15.929Z,478.39
2019-05-11T06:35:16.271Z,471.27
2019-05-11T06:36:15.908Z,480.47
2019-05-11T06:37:15.813Z,477.14
2019-05-11T06:38:15.846Z,482.48
2019-05-11T06:39:15.864Z,471.04
2019-05-11T06:40:15.798Z,473.02
2019-05-11T06:41:15.891Z,473.47
2019-05-11T06:42:15.791Z,474.34
2019-05-11T06:43:15.845Z,474.96
2019-05-11T06:44:15.859Z,473.32
2019-05-11T06:45:15.738Z,473.22
2019-05-11T06:46:15.806Z,479.86
2019-05-11T06:47:15.713Z,477.86
2019-05-11T06:48:15.824Z,475.37
2019-05-11T06:49:15.716Z,482.91
2019-05-11T06:50:15.695Z,479.57
2019-05-11T06:51:15.661Z,481.08
2019-05-11T06:52:15.758Z,477.48
2019-05-11T06:53:15.681Z,482.85
2019-05-11T06:54:15.735Z,482.51
2019-05-11T06:55:15.641Z,483.06
2019-05-11T06:56:15.658Z,479.14
2019-05-11T06:57:15.659Z,478.03
2019-05-11T06:58:15.604Z,479.48
2019-05-11T06:59:15.622Z,480.32
2019-05-11T07:00:15.578Z,480.15
2019-05-11T07:01:15.623Z,481.06
2019-05-11T07:02:15.696Z,484.09
2019-05-11T07:03:15.601Z,478.12
2019-05-11T07:04:15.579Z,474.43
2019-05-11T07:05:15.562Z,476.36
2019-05-11T07:06:15.607Z,478.78
2019-05-11T07:07:15.487Z,481.57
2019-05-11T07:08:15.480Z,475.58
2019-05-11T07:09:15.614Z,476.12
2019-05-11T07:10:15.483Z,481.56
2019-05-11T07:11:15.697Z,477.42
2019-05-11T07:12:15.553Z,478.58
2019-05-11T07:13:15.421Z,485.35
2019-05-11T07:14:20.429Z,478.95
2019-05-11T07:15:16.446Z,478.11
2019-05-11T07:16:15.414Z,483.98
2019-05-11T07:17:15.451Z,479.24
2019-05-11T07:18:15.394Z,489.94
2019-05-11T07:19:15.347Z,471.58
2019-05-11T07:20:15.380Z,481.41
2019-05-11T07:21:15.374Z,483.07
2019-05-11T07:22:15.357Z,480.41
2019-05-11T07:23:15.345Z,484.58
2019-05-11T07:24:15.329Z,481.76
2019-05-11T07:25:15.370Z,478.33
2019-05-11T07:26:15.285Z,481.73
2019-05-11T07:27:15.308Z,482.15
2019-05-11T07:28:15.266Z,476.76
2019-05-11T07:29:15.323Z,480.72
2019-05-11T07:30:15.224Z,482.25
2019-05-11T07:31:15.257Z,489.01
2019-05-11T07:32:23.063Z,479.24
2019-05-11T07:33:18.267Z,480.54
2019-05-11T07:34:15.260Z,482.56
2019-05-11T07:35:15.384Z,477.95
2019-05-11T07:36:17.590Z,478.77
2019-05-11T07:37:15.214Z,487.52
2019-05-11T07:38:15.252Z,476.42
2019-05-11T07:39:15.183Z,478.44
2019-05-11T07:40:15.258Z,479.48
2019-05-11T07:41:17.525Z,479.81
2019-05-11T07:42:15.113Z,485.59
2019-05-11T07:43:15.195Z,480.70
2019-05-11T07:44:15.175Z,480.92
2019-05-11T07:45:15.125Z,483.88
2019-05-11T07:46:15.091Z,485.34
2019-05-11T07:47:15.083Z,479.96
2019-05-11T07:48:15.091Z,482.70
2019-05-11T07:49:15.067Z,485.06
2019-05-11T07:50:15.039Z,482.15
2019-05-11T07:51:15.033Z,493.44
2019-05-11T07:52:15.006Z,481.48
2019-05-11T07:53:15.036Z,490.12
2019-05-11T07:54:15.039Z,484.46
2019-05-11T07:55:15.104Z,479.37
2019-05-11T07:56:14.981Z,482.88
2019-05-11T07:57:15.024Z,493.34
2019-05-11T07:58:14.959Z,489.97
2019-05-11T07:59:14.965Z,486.79
2019-05-11T08:00:14.913Z,486.92
2019-05-11T08:01:14.934Z,488.67
2019-05-11T08:02:14.906Z,472.37
2019-05-11T08:03:14.907Z,484.11
2019-05-11T08:04:14.894Z,491.57
2019-05-11T08:05:14.905Z,486.42
2019-05-11T08:06:14.870Z,484.36
2019-05-11T08:07:14.879Z,491.22
2019-05-11T08:08:14.879Z,488.54
2019-05-11T08:09:14.886Z,490.59
2019-05-11T08:10:14.835Z,490.49
2019-05-11T08:11:14.796Z,485.73
2019-05-11T08:12:14.794Z,490.03
2019-05-11T08:13:14.770Z,490.70
2019-05-11T08:14:14.757Z,493.66
2019-05-11T08:15:14.769Z,480.87
2019-05-11T08:16:23.711Z,495.47
2019-05-11T08:17:14.777Z,491.19
2019-05-11T08:18:14.853Z,491.42
2019-05-11T08:19:14.728Z,487.54
2019-05-11T08:20:14.698Z,486.29
2019-05-11T08:21:14.711Z,480.10
2019-05-11T08:22:14.687Z,490.07
2019-05-11T08:23:14.652Z,478.20
2019-05-11T08:24:14.643Z,486.25
2019-05-11T08:25:14.648Z,478.87
2019-05-11T08:26:14.649Z,478.08
2019-05-11T08:27:14.641Z,477.01
2019-05-11T08:28:14.613Z,488.74
2019-05-11T08:29:24.041Z,492.31
2019-05-11T08:30:14.588Z,481.33
2019-05-11T08:31:14.600Z,496.16
2019-05-11T08:32:14.560Z,489.16
2019-05-11T08:33:14.545Z,478.71
2019-05-11T08:34:14.618Z,481.30
2019-05-11T08:35:14.551Z,496.01
2019-05-11T08:36:14.517Z,485.99
2019-05-11T08:37:14.534Z,481.66
2019-05-11T08:38:14.497Z,485.88
2019-05-11T08:39:14.486Z,493.58
2019-05-11T08:40:14.517Z,493.02
2019-05-11T08:41:14.484Z,509.29
2019-05-11T08:42:14.470Z,488.42
2019-05-11T08:43:14.483Z,492.90
2019-05-11T08:44:14.455Z,483.48
2019-05-11T08:45:19.983Z,490.78
2019-05-11T08:46:15.415Z,496.19
2019-05-11T08:47:14.512Z,482.56
2019-05-11T08:48:14.425Z,487.64
2019-05-11T08:49:15.777Z,499.11
2019-05-11T08:50:15.451Z,493.06
2019-05-11T08:51:14.413Z,499.98
2019-05-11T08:52:14.547Z,492.56
2019-05-11T08:53:14.392Z,489.58
2019-05-11T08:54:14.374Z,495.28
2019-05-11T08:55:14.415Z,494.77
2019-05-11T08:58:07.831Z,538.12
2019-05-11T08:58:33.115Z,504.96
2019-05-11T08:59:34.113Z,484.94
2019-05-11T09:00:32.224Z,484.81
2019-05-11T09:01:32.666Z,494.26
2019-05-11T09:02:33.277Z,481.27
2019-05-11T09:03:32.325Z,496.30
2019-05-11T09:04:32.232Z,494.29
2019-05-11T09:05:32.196Z,499.35
2019-05-11T09:06:32.228Z,500.87
2019-05-11T09:07:32.155Z,481.76
2019-05-11T09:08:32.138Z,485.04
2019-05-11T09:09:32.195Z,494.82
2019-05-11T09:10:32.156Z,504.15
2019-05-11T09:11:32.098Z,495.24
2019-05-11T09:12:32.094Z,490.27
2019-05-11T09:13:32.265Z,486.78
2019-05-11T09:14:32.143Z,500.03
2019-05-11T09:15:37.279Z,485.10
2019-05-11T09:16:33.061Z,496.14
2019-05-11T09:17:32.058Z,495.87
2019-05-11T09:18:32.086Z,498.37
2019-05-11T09:19:32.158Z,493.04
2019-05-11T09:20:32.117Z,497.25
2019-05-11T09:21:35.009Z,496.65
2019-05-11T09:22:32.042Z,499.42
2019-05-11T09:23:37.366Z,505.36
2019-05-11T09:24:33.078Z,496.05
2019-05-11T09:25:33.086Z,492.62
2019-05-11T09:26:33.892Z,494.09
2019-05-11T09:27:33.067Z,493.07
2019-05-11T09:28:33.011Z,501.89
2019-05-11T09:29:32.268Z,489.09
2019-05-11T09:30:32.029Z,466.33
2019-05-11T09:31:32.517Z,501.51
2019-05-11T09:32:32.125Z,486.74
2019-05-11T09:33:32.541Z,499.10
2019-05-11T09:34:33.178Z,495.41
2019-05-11T09:35:46.439Z,491.46
2019-05-11T09:36:32.913Z,489.15
2019-05-11T09:40:47.945Z,464.95
2019-05-11T09:41:43.424Z,494.86
2019-05-11T09:42:43.287Z,507.45
2019-05-11T09:43:42.550Z,485.87
2019-05-11T09:44:42.463Z,501.25
2019-05-11T09:45:48.081Z,492.27
2019-05-11T09:46:43.539Z,524.95
2019-05-11T09:47:42.523Z,488.64
2019-05-11T09:48:43.461Z,507.51
2019-05-11T09:49:51.106Z,484.24
2019-05-11T09:50:42.366Z,493.24
2019-05-11T09:51:42.362Z,497.20
2019-05-11T09:52:42.418Z,496.59
2019-05-11T09:53:42.379Z,514.07
2019-05-11T09:54:42.341Z,512.79
2019-05-11T09:55:42.312Z,531.74
2019-05-11T09:56:42.336Z,485.46
2019-05-11T09:57:42.354Z,476.84
2019-05-11T09:58:42.330Z,504.48
2019-05-11T09:59:42.315Z,503.32
2019-05-11T10:00:42.326Z,506.23
2019-05-11T10:01:42.330Z,481.65
2019-05-11T10:02:42.282Z,503.11
2019-05-11T10:03:42.301Z,502.83
2019-05-11T10:04:42.984Z,494.97
2019-05-11T10:05:42.244Z,480.94
2019-05-11T10:06:42.343Z,490.98
2019-05-11T10:07:42.278Z,500.39
2019-05-11T10:08:42.267Z,504.61
2019-05-11T10:09:42.219Z,499.41
2019-05-11T10:10:42.216Z,502.02
2019-05-11T10:11:42.424Z,492.84
2019-05-11T10:12:42.227Z,511.58
2019-05-11T10:13:42.153Z,500.90
2019-05-11T10:14:42.148Z,499.12
2019-05-11T10:15:42.116Z,489.28
2019-05-11T10:16:42.122Z,484.21
2019-05-11T10:17:42.097Z,502.71
2019-05-11T10:18:42.136Z,492.65
2019-05-11T10:19:42.108Z,474.59
2019-05-11T10:20:42.065Z,483.13
2019-05-11T10:21:42.066Z,507.53
2019-05-11T10:22:42.049Z,510.24
2019-05-11T10:23:42.633Z,487.82
2019-05-11T10:24:42.037Z,479.32
2019-05-11T10:25:42.911Z,487.58
2019-05-11T10:26:42.017Z,499.09
2019-05-11T10:27:41.985Z,488.01
2019-05-11T10:28:42.005Z,499.83
2019-05-11T10:29:42.020Z,514.23
2019-05-11T10:30:41.965Z,494.07
2019-05-11T10:31:41.961Z,484.60
2019-05-11T10:32:41.956Z,490.86
2019-05-11T10:33:41.933Z,489.52
2019-05-11T10:34:42.419Z,503.45
2019-05-11T10:35:41.962Z,496.31
2019-05-11T10:36:41.940Z,480.57
2019-05-11T10:37:41.901Z,486.03
2019-05-11T10:38:42.592Z,487.10
2019-05-11T10:39:41.887Z,492.65
2019-05-11T10:40:42.881Z,496.14
2019-05-11T10:41:41.900Z,485.06
2019-05-11T10:42:41.834Z,480.57
2019-05-11T10:43:41.829Z,502.22
2019-05-11T10:44:41.819Z,502.68
2019-05-11T10:45:41.896Z,506.68
2019-05-11T10:46:41.787Z,471.11
2019-05-11T10:47:41.786Z,507.53
2019-05-11T10:48:41.779Z,476.37
2019-05-11T10:49:41.750Z,486.44
2019-05-11T10:50:41.738Z,501.56
2019-05-11T10:51:41.742Z,516.68
2019-05-11T10:52:41.733Z,494.44
2019-05-11T10:53:41.723Z,497.65
2019-05-11T10:54:41.732Z,502.38
2019-05-11T10:55:41.711Z,505.30
2019-05-11T10:56:41.713Z,501.54
2019-05-11T10:57:41.678Z,516.68
2019-05-11T10:58:41.676Z,499.38
2019-05-11T10:59:41.646Z,506.86
2019-05-11T11:00:41.648Z,494.68
2019-05-11T11:01:41.630Z,462.39
2019-05-11T11:02:41.644Z,514.68
2019-05-11T11:03:41.610Z,504.40
2019-05-11T11:04:41.704Z,514.18
2019-05-11T11:05:41.615Z,502.37
2019-05-11T11:06:41.607Z,506.11
2019-05-11T11:07:41.594Z,501.67
2019-05-11T11:08:41.593Z,499.50
2019-05-11T11:09:41.600Z,493.54
2019-05-11T11:10:41.566Z,478.43
2019-05-11T11:11:41.522Z,493.47
2019-05-11T11:12:41.517Z,512.69
2019-05-11T11:13:41.557Z,514.10
2019-05-11T11:14:41.509Z,510.65
2019-05-11T11:15:41.520Z,509.89
2019-05-11T11:16:42.932Z,495.69
2019-05-11T11:17:41.472Z,514.52
2019-05-11T11:18:41.507Z,514.33
2019-05-11T11:19:41.473Z,506.03
2019-05-11T11:20:41.479Z,505.78
2019-05-11T11:21:41.479Z,502.87
2019-05-11T11:22:44.286Z,513.17
2019-05-11T11:23:41.409Z,498.93
2019-05-11T11:24:41.404Z,506.27
2019-05-11T11:25:41.397Z,525.38
2019-05-11T11:26:41.396Z,513.21
2019-05-11T11:27:41.827Z,508.96
2019-05-11T11:28:41.365Z,513.58
2019-05-11T11:29:41.366Z,506.10
2019-05-11T11:30:41.342Z,516.50
2019-05-11T11:31:41.314Z,494.50
2019-05-11T11:32:41.306Z,502.47
2019-05-11T11:33:41.332Z,500.48
2019-05-11T11:34:41.313Z,514.75
2019-05-11T11:35:41.333Z,513.42
2019-05-11T11:36:41.280Z,500.83
2019-05-11T11:37:41.254Z,503.57
2019-05-11T11:38:41.228Z,503.00
2019-05-11T11:39:41.235Z,515.39
2019-05-11T11:40:42.931Z,498.74
2019-05-11T11:41:41.246Z,499.14
2019-05-11T11:42:41.235Z,490.53
2019-05-11T11:43:41.255Z,502.59
2019-05-11T11:44:41.192Z,510.79
2019-05-11T11:45:41.218Z,508.63
2019-05-11T11:46:52.081Z,501.38
2019-05-11T11:47:42.152Z,495.83
2019-05-11T11:48:41.137Z,502.74
2019-05-11T11:49:41.129Z,506.27
2019-05-11T11:50:41.116Z,503.33
2019-05-11T11:51:41.154Z,501.40
2019-05-11T11:52:41.106Z,505.66
2019-05-11T11:53:41.086Z,514.27
2019-05-11T11:54:41.069Z,501.75
2019-05-11T11:55:41.055Z,505.90
2019-05-11T11:56:41.082Z,494.21
2019-05-11T11:57:41.056Z,502.95
2019-05-11T11:58:41.067Z,508.27
2019-05-11T11:59:41.077Z,489.31
2019-05-11T12:00:41.084Z,527.65
2019-05-11T12:01:41.009Z,501.94
2019-05-11T12:02:40.995Z,499.47
2019-05-11T12:03:41.025Z,506.09
2019-05-11T12:04:40.982Z,498.98
2019-05-11T12:05:40.959Z,488.15
2019-05-11T12:06:40.975Z,479.38
2019-05-11T12:07:40.949Z,495.91
2019-05-11T12:08:40.962Z,499.17
2019-05-11T12:09:40.910Z,504.39
2019-05-11T12:10:40.907Z,504.74
2019-05-11T12:11:40.911Z,504.89
2019-05-11T12:12:40.895Z,501.47
2019-05-11T12:13:40.874Z,505.24
2019-05-11T12:14:40.858Z,481.06
2019-05-11T12:15:40.855Z,505.81
2019-05-11T12:16:40.831Z,502.78
2019-05-11T12:17:41.060Z,499.43
2019-05-11T12:18:40.832Z,505.25
2019-05-11T12:19:40.840Z,492.07
2019-05-11T12:20:41.343Z,511.25
2019-05-11T12:21:40.832Z,519.97
2019-05-11T12:22:40.844Z,511.33
2019-05-11T12:23:40.789Z,499.22
2019-05-11T12:24:40.761Z,504.81
2019-05-11T12:25:40.816Z,503.51
2019-05-11T12:26:40.738Z,493.49
2019-05-11T12:27:40.768Z,489.91
2019-05-11T12:28:40.744Z,507.17
2019-05-11T12:29:40.742Z,497.10
2019-05-11T12:30:40.704Z,514.07
2019-05-11T12:31:40.700Z,504.82
2019-05-11T12:32:40.659Z,505.33
2019-05-11T12:33:40.668Z,493.34